Detalii statie SCHWAB AGRO ARDUD [00001CF5]

Toti senzorii

Date Temperatura solului [C]Precipitatii [mm]Voltaj baterie [mV]Leaf Wetness [Min]HC Air temperature [C]HC Relative humidity [%]Punctul de roua [C]
medieminmaxsumaultimatimpmedieminmaxmediemediemin
2019-06-15 18:00:00 0 6834 31.56 31.28 31.92 99.53 31.3 30.8
2019-06-15 19:00:00 0 6834 30.69 30.29 31.28 100 30.6 30.2
2019-06-15 20:00:00 0 6806 29.1 27.75 30.67 100 29 27.7
2019-06-15 21:00:00 0 6806 26.05 24.56 27.53 100 26 24.5
2019-06-15 22:00:00 0 6796 23.65 23.23 24.16 100 23.6 23.2
2019-06-15 23:00:00 0 6806 22.65 21.88 23.1 100 22.6 21.8
2019-06-16 00:00:00 0 6806 21.23 21 21.57 100 21.1 21
2019-06-16 01:00:00 0 6786 21.11 20.83 21.45 100 21 20.8
2019-06-16 02:00:00 0 6796 20.95 20.67 21.34 100 20.9 20.6
2019-06-16 03:00:00 0 6786 20.8 20.49 21 100 20.7 20.4
2019-06-16 04:00:00 0 6796 20.04 19.77 20.31 100 20 19.7
2019-06-16 05:00:00 0 6786 19.75 19.53 20.18 100 19.7 19.5
2019-06-16 06:00:00 0 6786 21.31 19.59 23.66 100 21.2 19.5
2019-06-16 07:00:00 0 6786 25.14 24.05 26.64 100 25.1 24
2019-06-16 08:00:00 0 6786 27.54 26.84 29.4 100 27.5 26.8
2019-06-16 09:00:00 0 6786 30.49 29.32 31.62 100 30.4 29.3
2019-06-16 10:00:00 0 6816 31.59 31.19 32.39 100 31.5 31.1
2019-06-16 11:00:00 0 6854 32.93 31.94 34.14 100 32.8 31.9
2019-06-16 12:00:00 0 6884 34.08 32.65 34.79 100 34 32.6
2019-06-16 13:00:00 0 6894 34.51 33.45 35.53 100 34.4 33.4
2019-06-16 14:00:00 0 6914 34.08 33.9 34.34 100 34 33.9
2019-06-16 15:00:00 0 6904 34.46 33.73 35.19 100 34.4 33.7
2019-06-16 16:00:00 0 6904 34.14 33.33 35.42 100 34.1 33.3
2019-06-16 17:00:00 0 6874 33.51 32.36 34.59 100 33.4 32.3
2019-06-16 18:00:00 0 6854 31.58 30.39 32.33 100 31.5 30.3
2019-06-16 19:00:00 0 6834 28.93 27.86 29.99 100 28.8 27.8
2019-06-16 20:00:00 0 6816 28.12 27.93 28.29 100 28 27.9
2019-06-16 21:00:00 0 6806 26.04 25.43 27.43 100 26 25.4
2019-06-16 22:00:00 0 6806 24.37 23.8 25.72 100 24.3 23.8
2019-06-16 23:00:00 8.6 6806 22.54 19.69 24.82 100 22.5 19.6
2019-06-17 00:00:00 0.2 6806 18.87 17.7 19.76 100 18.8 17.7
2019-06-17 01:00:00 3.4 6796 17.43 17.12 17.77 58.33 0
2019-06-17 02:00:00 0 6786 17.4 16.9 17.86 0 0 0
2019-06-17 03:00:00 0 6776 17.02 16.89 17.13 0 0 0
2019-06-17 04:00:00 0 6756 17.31 17.14 17.48 4.23 -20 0
2019-06-17 05:00:00 0 6776 17.23 17.11 17.41 0.63 -5 0
2019-06-17 06:00:00 0 6756 17.92 17.35 18.36 3.22 -29.3 -39.2
2019-06-17 07:00:00 0 6786 19.42 18.71 20.52 9.8 0
2019-06-17 08:00:00 0 6806 21.35 20.62 21.97 100 21.3 20.6
2019-06-17 09:00:00 0 6806 21.5 20.8 23.21 100 21.4 20.8
2019-06-17 10:00:00 0 6834 23.93 22.91 25.75 100 23.8 22.9
2019-06-17 11:00:00 0 6874 26.06 25.02 27.59 100 26 25
2019-06-17 12:00:00 0 6932 27.23 25.6 29.35 100 27.1 25.6
2019-06-17 13:00:00 0 6932 28.84 27.97 29.83 100 28.8 27.9
2019-06-17 14:00:00 0 6942 28.7 27.47 29.99 100 28.6 27.4
2019-06-17 15:00:00 0 6942 29.22 27.49 29.96 100 29.1 27.4
2019-06-17 16:00:00 0 6904 28.79 26.7 30.12 100 28.7 26.7
2019-06-17 17:00:00 0 6914 27.01 26.48 27.39 100 26.9 26.4